Time;durP1;ratioP1;P1;durP2;ratioP2;P2;SDS_P1;SDS_P2;PMS_P1;PMS_P2;Temp;Humidity;BMP_temperature;BMP_pressure;BME280_temperature;BME280_humidity;BME280_pressure;Samples;Min_cycle;Max_cycle;Signal;HPM_P1;HPM_P2
2023/05/30 00:01:18;;;;;;;8.10;2.83;;;17.10;47.60;;;;;;5094769;28;20454;-56
2023/05/30 00:03:46;;;;;;;6.80;3.00;;;17.10;47.70;;;;;;5094595;28;20444;-56
2023/05/30 00:06:13;;;;;;;13.57;3.70;;;17.00;47.80;;;;;;5094689;28;20500;-56
2023/05/30 00:08:39;;;;;;;8.33;2.67;;;17.00;48.00;;;;;;5094703;28;20535;-56
2023/05/30 00:11:08;;;;;;;12.77;4.30;;;16.90;48.00;;;;;;5094305;28;20818;-56
2023/05/30 00:13:35;;;;;;;8.90;2.90;;;16.90;48.10;;;;;;5094293;28;20534;-56
2023/05/30 00:16:03;;;;;;;10.63;3.33;;;16.90;48.30;;;;;;5094374;28;20470;-55
2023/05/30 00:18:34;;;;;;;7.07;2.60;;;16.80;48.20;;;;;;5094503;28;20490;-55
2023/05/30 00:21:02;;;;;;;8.50;2.87;;;16.80;48.30;;;;;;5093088;28;20439;-55
2023/05/30 00:23:29;;;;;;;9.53;3.50;;;16.70;48.20;;;;;;5094531;28;20474;-55
2023/05/30 00:25:56;;;;;;;12.60;4.37;;;16.70;48.60;;;;;;5094357;28;20478;-55
2023/05/30 00:28:24;;;;;;;11.53;3.33;;;16.60;48.60;;;;;;5094343;28;20527;-55
2023/05/30 00:30:51;;;;;;;9.30;3.20;;;16.60;48.70;;;;;;5094266;28;20447;-55
2023/05/30 00:33:18;;;;;;;14.70;3.50;;;16.50;48.80;;;;;;5094243;28;20828;-55
2023/05/30 00:35:44;;;;;;;9.63;3.40;;;16.40;49.00;;;;;;5093869;28;20891;-56
2023/05/30 00:38:11;;;;;;;8.60;2.97;;;16.40;49.00;;;;;;5093961;28;20484;-55
2023/05/30 00:40:38;;;;;;;14.57;3.70;;;16.30;49.00;;;;;;5093902;28;20452;-55
2023/05/30 00:43:05;;;;;;;11.60;2.70;;;16.30;49.20;;;;;;5093538;28;20822;-55
2023/05/30 00:45:33;;;;;;;8.07;2.70;;;16.20;49.40;;;;;;5094039;28;20467;-56
2023/05/30 00:48:01;;;;;;;9.80;3.30;;;16.20;49.60;;;;;;5093984;28;20444;-55
2023/05/30 00:50:30;;;;;;;10.30;3.00;;;16.20;49.70;;;;;;5093728;28;20456;-56
2023/05/30 00:52:58;;;;;;;6.97;2.60;;;16.10;49.80;;;;;;5093407;28;20949;-56
2023/05/30 00:55:26;;;;;;;10.33;3.43;;;16.10;49.90;;;;;;5093713;28;20468;-55
2023/05/30 00:57:53;;;;;;;11.43;3.20;;;16.00;49.90;;;;;;5093818;28;20567;-55
2023/05/30 01:00:24;;;;;;;5.67;3.10;;;16.00;50.00;;;;;;5093371;28;20459;-56
2023/05/30 01:02:57;;;;;;;6.53;2.93;;;15.90;50.10;;;;;;5093765;28;20489;-55
2023/05/30 01:05:24;;;;;;;8.77;3.00;;;15.90;50.40;;;;;;5093635;28;20463;-55
2023/05/30 01:07:52;;;;;;;8.70;2.80;;;15.90;50.50;;;;;;5093620;28;20448;-56
2023/05/30 01:10:19;;;;;;;10.63;3.13;;;15.90;50.90;;;;;;5093422;28;20459;-56
2023/05/30 01:12:54;;;;;;;8.03;2.97;;;15.80;51.00;;;;;;5093916;28;20471;-55
2023/05/30 01:15:25;;;;;;;9.30;3.23;;;15.80;51.10;;;;;;5093209;28;20992;-56
2023/05/30 01:18:01;;;;;;;8.20;3.23;;;15.80;51.00;;;;;;5093261;28;20467;-55
2023/05/30 01:20:32;;;;;;;9.67;3.20;;;15.80;51.10;;;;;;5093633;28;20479;-56
2023/05/30 01:23:09;;;;;;;10.20;3.73;;;15.80;51.20;;;;;;5093471;28;20432;-55
2023/05/30 01:25:58;;;;;;;7.90;3.63;;;15.70;51.50;;;;;;5094016;28;20495;-55
2023/05/30 01:28:28;;;;;;;10.10;3.00;;;15.70;51.50;;;;;;5093423;28;20432;-55
2023/05/30 01:30:57;;;;;;;12.73;3.10;;;15.60;51.70;;;;;;5092938;28;20965;-55
2023/05/30 01:33:26;;;;;;;8.50;2.90;;;15.60;52.00;;;;;;5093230;28;20443;-55
2023/05/30 01:35:53;;;;;;;9.37;3.23;;;15.60;51.80;;;;;;5093224;28;20468;-55
2023/05/30 01:38:19;;;;;;;9.33;3.60;;;15.50;51.90;;;;;;5093273;28;20483;-55
2023/05/30 01:40:50;;;;;;;7.50;2.90;;;15.50;52.10;;;;;;5093310;28;20444;-55
2023/05/30 01:43:28;;;;;;;11.20;3.30;;;15.50;52.20;;;;;;5093316;28;20436;-55
2023/05/30 01:46:02;;;;;;;10.63;3.00;;;15.40;52.30;;;;;;5093151;28;20471;-55
2023/05/30 01:48:35;;;;;;;11.73;3.60;;;15.40;52.60;;;;;;5093318;28;20790;-55
2023/05/30 01:51:06;;;;;;;11.90;3.10;;;15.30;52.60;;;;;;5092983;28;20439;-55
2023/05/30 01:53:42;;;;;;;12.13;2.93;;;15.20;52.60;;;;;;5093284;28;20436;-55
2023/05/30 01:56:13;;;;;;;6.50;2.80;;;15.20;52.80;;;;;;5092841;28;20973;-55
2023/05/30 01:58:41;;;;;;;13.40;3.87;;;15.20;53.10;;;;;;5093101;28;20471;-56
2023/05/30 02:01:10;;;;;;;6.87;3.00;;;15.10;53.00;;;;;;5092840;28;20941;-55
2023/05/30 02:03:37;;;;;;;10.53;3.63;;;15.10;53.10;;;;;;5093346;28;20448;-55
2023/05/30 02:06:04;;;;;;;12.60;4.10;;;15.10;53.20;;;;;;5094024;28;20459;-56
2023/05/30 02:08:31;;;;;;;8.00;3.40;;;15.10;53.30;;;;;;5093087;28;20861;-55
2023/05/30 02:10:58;;;;;;;8.03;2.93;;;15.00;53.50;;;;;;5093227;28;20451;-55
2023/05/30 02:13:24;;;;;;;10.80;4.30;;;14.90;53.70;;;;;;5092985;28;20452;-55
2023/05/30 02:15:51;;;;;;;8.70;3.43;;;14.90;53.90;;;;;;5092926;28;20472;-55
2023/05/30 02:18:19;;;;;;;8.00;2.97;;;14.90;54.10;;;;;;5093703;28;20533;-55
2023/05/30 02:20:46;;;;;;;11.33;3.00;;;14.90;54.30;;;;;;5092896;28;20501;-55
2023/05/30 02:23:12;;;;;;;11.40;3.53;;;14.90;54.30;;;;;;5092609;28;20880;-55
2023/05/30 02:25:39;;;;;;;8.80;2.57;;;14.80;54.30;;;;;;5092839;28;20474;-56
2023/05/30 02:28:06;;;;;;;7.37;3.00;;;14.80;54.50;;;;;;5093509;28;20522;-56
2023/05/30 02:30:33;;;;;;;12.33;3.20;;;14.80;54.60;;;;;;5093013;28;20452;-56
2023/05/30 02:32:59;;;;;;;6.00;2.90;;;14.70;54.70;;;;;;5093047;28;20455;-56
2023/05/30 02:35:27;;;;;;;11.27;3.27;;;14.70;54.90;;;;;;5093420;28;20479;-56
2023/05/30 02:37:54;;;;;;;10.03;3.27;;;14.70;55.10;;;;;;5092896;28;20448;-56
2023/05/30 02:40:21;;;;;;;6.53;2.80;;;14.70;55.30;;;;;;5092995;28;20493;-56
2023/05/30 02:42:49;;;;;;;9.73;3.73;;;14.70;55.40;;;;;;5093205;28;20452;-56
2023/05/30 02:45:16;;;;;;;6.50;2.80;;;14.60;55.30;;;;;;5095847;28;21053;-56
2023/05/30 02:47:42;;;;;;;8.33;2.77;;;14.60;55.60;;;;;;5096517;28;20452;-56
2023/05/30 02:50:10;;;;;;;11.43;2.93;;;14.60;55.80;;;;;;5096638;28;20823;-56
2023/05/30 02:52:38;;;;;;;8.10;3.10;;;14.60;55.70;;;;;;5096424;28;20455;-56
2023/05/30 02:55:05;;;;;;;11.57;2.80;;;14.60;55.80;;;;;;5095849;28;20807;-56
2023/05/30 02:57:32;;;;;;;13.20;2.80;;;14.50;55.80;;;;;;5096358;28;20839;-56
2023/05/30 02:59:59;;;;;;;6.03;2.90;;;14.50;56.00;;;;;;5096069;28;20490;-56
2023/05/30 03:02:25;;;;;;;11.53;3.60;;;14.50;56.30;;;;;;5096268;28;20530;-56
2023/05/30 03:04:52;;;;;;;10.67;2.70;;;14.40;56.40;;;;;;5096143;28;20451;-56
2023/05/30 03:07:19;;;;;;;9.33;3.23;;;14.40;56.40;;;;;;5096051;28;20447;-56
2023/05/30 03:09:47;;;;;;;11.07;3.57;;;14.40;56.60;;;;;;5095589;28;20448;-56
2023/05/30 03:12:14;;;;;;;9.90;3.03;;;14.40;56.80;;;;;;5096103;28;20464;-56
2023/05/30 03:14:40;;;;;;;12.57;2.80;;;14.40;56.90;;;;;;5096395;28;20999;-56
2023/05/30 03:17:08;;;;;;;7.80;2.87;;;14.30;56.80;;;;;;5096735;28;20479;-56
2023/05/30 03:19:34;;;;;;;10.23;2.90;;;14.30;56.90;;;;;;5096291;28;20487;-56
2023/05/30 03:22:01;;;;;;;8.00;2.20;;;14.20;57.10;;;;;;5096097;28;20448;-56
2023/05/30 03:24:29;;;;;;;11.97;3.03;;;14.20;57.50;;;;;;5095663;28;20469;-56
2023/05/30 03:26:57;;;;;;;8.87;3.07;;;14.10;57.60;;;;;;5095248;28;20972;-56
2023/05/30 03:29:23;;;;;;;11.00;3.60;;;14.10;57.80;;;;;;5095528;28;20509;-56
2023/05/30 03:31:50;;;;;;;12.00;3.23;;;14.00;57.90;;;;;;5095709;28;20448;-56
2023/05/30 03:34:17;;;;;;;11.87;3.53;;;14.00;58.20;;;;;;5095393;28;20517;-56
2023/05/30 03:36:43;;;;;;;6.57;2.70;;;14.00;58.50;;;;;;5095371;28;20464;-56
2023/05/30 03:39:10;;;;;;;10.40;3.33;;;14.00;58.70;;;;;;5095678;28;20480;-56
2023/05/30 03:41:37;;;;;;;8.57;2.33;;;13.90;58.70;;;;;;5094952;28;20956;-56
2023/05/30 03:44:05;;;;;;;7.90;2.80;;;13.90;59.00;;;;;;5095241;28;20455;-56
2023/05/30 03:46:32;;;;;;;12.57;3.13;;;13.90;59.00;;;;;;5095403;28;20806;-56
2023/05/30 03:48:59;;;;;;;9.00;2.90;;;13.90;59.30;;;;;;5095268;28;20879;-56
2023/05/30 03:51:26;;;;;;;7.80;2.47;;;13.90;59.40;;;;;;5095234;28;20884;-56
2023/05/30 03:53:53;;;;;;;9.37;3.50;;;13.90;59.50;;;;;;5095005;28;20483;-56
2023/05/30 03:56:19;;;;;;;9.00;2.70;;;13.90;59.70;;;;;;5094668;28;20467;-56
2023/05/30 03:58:46;;;;;;;12.20;3.50;;;13.90;60.20;;;;;;5094906;28;20484;-56
2023/05/30 04:01:15;;;;;;;11.77;3.50;;;13.80;60.20;;;;;;5095126;28;20444;-56
2023/05/30 04:03:43;;;;;;;6.97;3.10;;;13.90;60.50;;;;;;5094893;28;20436;-56
2023/05/30 04:06:10;;;;;;;8.33;2.97;;;13.90;60.70;;;;;;5094980;28;20468;-56
2023/05/30 04:08:37;;;;;;;8.07;2.70;;;13.90;60.90;;;;;;5094754;28;20477;-56
2023/05/30 04:11:04;;;;;;;13.53;2.53;;;13.90;61.10;;;;;;5095097;28;20460;-57
2023/05/30 04:13:30;;;;;;;12.63;2.80;;;13.90;61.40;;;;;;5094667;28;20452;-56
2023/05/30 04:15:57;;;;;;;9.10;2.83;;;13.90;61.70;;;;;;5094459;28;20468;-56
2023/05/30 04:18:25;;;;;;;8.73;3.30;;;13.90;62.00;;;;;;5094508;28;20448;-56
2023/05/30 04:20:52;;;;;;;10.00;3.00;;;14.00;62.30;;;;;;5094082;28;20996;-56
2023/05/30 04:23:18;;;;;;;10.70;3.50;;;14.00;62.60;;;;;;5094478;28;20488;-56
2023/05/30 04:25:47;;;;;;;8.23;3.53;;;14.00;62.80;;;;;;5094336;28;20468;-56
2023/05/30 04:28:16;;;;;;;11.00;3.50;;;14.00;62.90;;;;;;5094278;28;20482;-56
2023/05/30 04:30:48;;;;;;;11.50;3.20;;;14.00;63.20;;;;;;5094321;28;20444;-56
2023/05/30 04:33:15;;;;;;;15.60;3.40;;;14.00;63.70;;;;;;5094297;28;20471;-56
2023/05/30 04:35:43;;;;;;;11.47;3.70;;;14.00;63.70;;;;;;5094069;28;20815;-56
2023/05/30 04:38:10;;;;;;;20.87;4.73;;;14.10;64.10;;;;;;5093997;28;20459;-56
2023/05/30 04:40:37;;;;;;;12.00;3.77;;;14.20;64.60;;;;;;5094110;28;20511;-56
2023/05/30 04:43:04;;;;;;;10.87;3.97;;;14.20;64.50;;;;;;5094685;28;20497;-57
2023/05/30 04:45:36;;;;;;;9.80;3.47;;;14.40;64.70;;;;;;5093780;28;21005;-56
2023/05/30 04:48:03;;;;;;;9.47;4.47;;;14.30;64.70;;;;;;5093787;28;20930;-56
2023/05/30 04:50:30;;;;;;;16.80;5.43;;;14.40;64.50;;;;;;5093882;28;20450;-56
2023/05/30 04:52:58;;;;;;;12.80;4.57;;;14.40;64.60;;;;;;5093602;28;20949;-57
2023/05/30 04:55:25;;;;;;;10.67;4.00;;;14.50;64.60;;;;;;5093788;28;20471;-56
2023/05/30 04:57:51;;;;;;;14.57;4.00;;;14.50;64.60;;;;;;5093759;28;20459;-56
2023/05/30 05:00:20;;;;;;;11.23;3.43;;;14.50;64.70;;;;;;5093733;28;20495;-57
2023/05/30 05:02:47;;;;;;;15.33;5.20;;;14.50;64.50;;;;;;5093762;28;20448;-57
2023/05/30 05:05:14;;;;;;;14.53;4.53;;;14.50;64.10;;;;;;5093658;28;20494;-56
2023/05/30 05:07:41;;;;;;;10.90;5.00;;;14.50;64.60;;;;;;5093080;28;20802;-56
2023/05/30 05:10:09;;;;;;;9.70;4.50;;;14.50;64.20;;;;;;5093647;28;20455;-56
2023/05/30 05:12:36;;;;;;;11.37;4.07;;;14.60;64.30;;;;;;5093579;28;20455;-56
2023/05/30 05:15:03;;;;;;;14.70;4.27;;;14.70;64.30;;;;;;5093438;28;20456;-56
2023/05/30 05:17:30;;;;;;;9.60;4.10;;;14.70;63.80;;;;;;5093623;28;20530;-56
2023/05/30 05:19:57;;;;;;;10.13;4.10;;;14.70;63.60;;;;;;5093356;28;20480;-56
2023/05/30 05:22:23;;;;;;;12.00;3.90;;;14.70;64.30;;;;;;5093428;28;20459;-56
2023/05/30 05:24:50;;;;;;;10.73;4.57;;;14.80;64.40;;;;;;5093097;28;20859;-56
2023/05/30 05:27:18;;;;;;;12.60;4.23;;;14.80;64.50;;;;;;5093266;28;20468;-57
2023/05/30 05:29:45;;;;;;;8.57;3.90;;;14.80;63.90;;;;;;5093332;28;20455;-57
2023/05/30 05:32:12;;;;;;;12.27;4.70;;;14.80;64.10;;;;;;5093404;28;20443;-56
2023/05/30 05:34:38;;;;;;;14.93;4.60;;;14.90;63.80;;;;;;5093360;28;20455;-56
2023/05/30 05:37:06;;;;;;;9.60;4.60;;;14.90;63.50;;;;;;5093244;28;20463;-57
2023/05/30 05:39:33;;;;;;;11.00;3.90;;;15.00;63.70;;;;;;5093208;28;20515;-57
2023/05/30 05:42:01;;;;;;;8.77;3.80;;;15.00;63.50;;;;;;5093685;28;20447;-57
2023/05/30 05:44:29;;;;;;;10.93;3.80;;;15.00;63.10;;;;;;5093893;28;20447;-56
2023/05/30 05:46:56;;;;;;;15.40;4.20;;;15.00;62.70;;;;;;5093316;28;20497;-56
2023/05/30 05:49:23;;;;;;;8.80;3.40;;;15.10;63.10;;;;;;5093677;28;20448;-56
2023/05/30 05:51:50;;;;;;;9.50;3.50;;;15.10;62.80;;;;;;5093307;28;20896;-56
2023/05/30 05:54:17;;;;;;;10.90;4.57;;;15.10;62.30;;;;;;5093249;28;20451;-56
2023/05/30 05:56:43;;;;;;;13.80;4.50;;;15.20;62.40;;;;;;5093305;28;20535;-56
2023/05/30 05:59:10;;;;;;;9.80;4.00;;;15.20;62.10;;;;;;5092723;28;20460;-56
2023/05/30 06:01:38;;;;;;;10.93;4.17;;;15.30;62.10;;;;;;5092947;28;20447;-56
2023/05/30 06:04:10;;;;;;;12.03;4.43;;;15.30;61.90;;;;;;5093083;28;20870;-56
2023/05/30 06:06:37;;;;;;;9.93;4.27;;;15.40;61.60;;;;;;5092967;28;20464;-57
2023/05/30 06:09:04;;;;;;;10.67;4.00;;;15.50;61.60;;;;;;5092984;28;20448;-57
2023/05/30 06:11:30;;;;;;;17.73;4.10;;;15.50;61.90;;;;;;5092612;28;20460;-57
2023/05/30 06:13:57;;;;;;;15.10;3.80;;;15.60;62.30;;;;;;5092984;28;20443;-56
2023/05/30 06:16:24;;;;;;;10.87;3.80;;;15.70;61.60;;;;;;5092386;28;20832;-56
2023/05/30 06:18:52;;;;;;;12.70;4.20;;;15.80;61.00;;;;;;5095702;28;20444;-56
2023/05/30 06:21:18;;;;;;;12.50;4.63;;;15.90;60.80;;;;;;5096035;28;20566;-57
2023/05/30 06:23:45;;;;;;;9.30;3.33;;;16.00;60.20;;;;;;5096850;28;20454;-57
2023/05/30 06:26:12;;;;;;;13.60;4.10;;;16.10;59.80;;;;;;5096726;28;20478;-57
2023/05/30 06:28:38;;;;;;;7.00;3.97;;;16.20;59.60;;;;;;5096702;28;20784;-57
2023/05/30 06:31:05;;;;;;;15.30;5.33;;;16.30;59.10;;;;;;5096591;28;20444;-57
2023/05/30 06:33:32;;;;;;;8.00;4.13;;;16.40;59.30;;;;;;5096659;28;20448;-57
2023/05/30 06:36:00;;;;;;;10.03;4.07;;;16.50;58.80;;;;;;5096520;28;20470;-56
2023/05/30 06:38:26;;;;;;;9.50;4.60;;;16.60;58.30;;;;;;5096462;28;20451;-56
2023/05/30 06:40:53;;;;;;;8.93;3.80;;;16.70;58.30;;;;;;5096582;28;20479;-56
2023/05/30 06:43:20;;;;;;;10.83;3.87;;;16.80;58.20;;;;;;5096058;28;20964;-57
2023/05/30 06:45:46;;;;;;;11.23;4.23;;;16.90;57.70;;;;;;5096383;28;20818;-57
2023/05/30 06:48:13;;;;;;;6.43;3.60;;;17.00;57.40;;;;;;5096306;28;20447;-57
2023/05/30 06:50:40;;;;;;;11.47;3.83;;;17.10;57.20;;;;;;5096179;28;20517;-57
2023/05/30 06:53:08;;;;;;;13.40;4.70;;;17.20;57.10;;;;;;5095897;28;20957;-57
2023/05/30 06:55:35;;;;;;;19.27;4.20;;;17.40;57.50;;;;;;5095992;28;20467;-57
2023/05/30 06:58:01;;;;;;;14.00;4.83;;;17.50;57.80;;;;;;5096127;28;20454;-57
2023/05/30 07:00:28;;;;;;;10.93;4.23;;;17.70;57.50;;;;;;5095997;28;20475;-57
2023/05/30 07:02:55;;;;;;;19.93;4.43;;;17.70;56.50;;;;;;5096318;28;20440;-56
2023/05/30 07:05:21;;;;;;;14.80;3.93;;;17.80;55.40;;;;;;5097011;28;20472;-56
2023/05/30 07:07:48;;;;;;;11.80;3.60;;;18.00;54.10;;;;;;5095904;28;20450;-56
2023/05/30 07:10:16;;;;;;;16.53;5.17;;;18.30;53.70;;;;;;5095898;28;20439;-56
2023/05/30 07:12:43;;;;;;;11.63;4.37;;;18.60;53.30;;;;;;5095794;28;20448;-56
2023/05/30 07:15:10;;;;;;;11.80;3.73;;;18.80;53.00;;;;;;5095737;28;20812;-56
2023/05/30 07:17:37;;;;;;;14.43;4.63;;;19.00;52.60;;;;;;5095755;28;20531;-55
2023/05/30 07:20:06;;;;;;;5.30;3.50;;;19.20;52.20;;;;;;5095229;28;20480;-56
2023/05/30 07:22:33;;;;;;;8.77;3.73;;;19.50;51.50;;;;;;5094166;28;20452;-55
2023/05/30 07:25:00;;;;;;;11.77;5.00;;;19.70;50.90;;;;;;5095481;28;20455;-57
2023/05/30 07:27:28;;;;;;;12.90;3.67;;;19.80;50.50;;;;;;5095259;28;20448;-56
2023/05/30 07:29:54;;;;;;;9.30;4.07;;;20.00;50.30;;;;;;5094832;28;20448;-57
2023/05/30 07:32:21;;;;;;;10.87;3.70;;;20.10;49.40;;;;;;5095538;28;20448;-57
2023/05/30 07:34:48;;;;;;;10.87;3.77;;;20.20;48.70;;;;;;5095447;28;20546;-57
2023/05/30 07:37:15;;;;;;;9.60;4.13;;;20.30;48.30;;;;;;5094955;28;20844;-57
2023/05/30 07:39:42;;;;;;;16.83;4.40;;;20.50;48.10;;;;;;5095310;28;20918;-57
2023/05/30 07:42:08;;;;;;;11.70;4.57;;;20.60;47.80;;;;;;5095252;28;20448;-57
2023/05/30 07:44:36;;;;;;;10.43;3.83;;;20.80;47.60;;;;;;5095209;28;20440;-57
2023/05/30 07:47:03;;;;;;;11.57;4.00;;;20.90;46.80;;;;;;5094762;28;20984;-57
2023/05/30 07:49:30;;;;;;;10.40;4.10;;;20.90;47.00;;;;;;5095171;28;20534;-56
2023/05/30 07:51:57;;;;;;;10.00;3.93;;;20.80;46.80;;;;;;5095123;28;20443;-57
2023/05/30 07:54:23;;;;;;;7.30;3.40;;;20.60;46.70;;;;;;5095012;28;20477;-56
2023/05/30 07:56:50;;;;;;;8.53;4.40;;;20.60;46.50;;;;;;5094633;28;20977;-55
2023/05/30 07:59:17;;;;;;;8.27;4.07;;;20.60;47.60;;;;;;5094815;28;20930;-56
2023/05/30 08:01:46;;;;;;;6.17;3.50;;;20.70;48.00;;;;;;5094533;28;21001;-56
2023/05/30 08:04:13;;;;;;;11.37;4.10;;;20.80;48.00;;;;;;5094827;28;20448;-55
2023/05/30 08:06:39;;;;;;;10.60;4.30;;;21.00;47.80;;;;;;5094756;28;20464;-56
2023/05/30 08:09:06;;;;;;;11.83;4.20;;;21.20;47.90;;;;;;5094713;28;20811;-56
2023/05/30 08:11:33;;;;;;;10.20;3.80;;;21.30;47.30;;;;;;5094434;28;20603;-56
2023/05/30 08:14:00;;;;;;;12.93;4.57;;;21.50;46.90;;;;;;5094613;28;20791;-56
2023/05/30 08:16:26;;;;;;;9.67;4.10;;;21.70;47.00;;;;;;5094187;28;20974;-56
2023/05/30 08:18:55;;;;;;;13.90;4.53;;;21.70;46.10;;;;;;5094466;28;20516;-56
2023/05/30 08:21:22;;;;;;;11.53;3.83;;;21.90;45.70;;;;;;5094133;28;20988;-56
2023/05/30 08:23:49;;;;;;;7.27;4.07;;;22.10;45.70;;;;;;5094429;28;20443;-56
2023/05/30 08:26:16;;;;;;;8.03;4.20;;;22.30;45.50;;;;;;5094395;28;20468;-56
2023/05/30 08:28:43;;;;;;;10.93;4.17;;;22.50;45.10;;;;;;5094339;28;20474;-56
2023/05/30 08:31:10;;;;;;;15.80;4.60;;;22.70;44.70;;;;;;5094531;28;20443;-56
2023/05/30 08:33:37;;;;;;;9.17;3.47;;;22.90;44.40;;;;;;5095093;28;20452;-56
2023/05/30 08:36:05;;;;;;;7.33;3.53;;;23.00;44.20;;;;;;5094163;28;20504;-56
2023/05/30 08:38:32;;;;;;;10.57;3.57;;;23.20;43.10;;;;;;5093926;28;20447;-56
2023/05/30 08:40:58;;;;;;;8.50;4.63;;;23.30;43.10;;;;;;5093395;28;20534;-56
2023/05/30 08:43:25;;;;;;;9.00;4.33;;;23.30;42.40;;;;;;5094710;28;20448;-56
2023/05/30 08:45:53;;;;;;;8.10;3.23;;;23.40;42.10;;;;;;5094910;28;20471;-56
2023/05/30 08:48:21;;;;;;;8.43;3.83;;;23.60;42.70;;;;;;5094926;28;20471;-56
2023/05/30 08:50:48;;;;;;;7.23;4.03;;;23.80;42.60;;;;;;5094480;28;20447;-56
2023/05/30 08:53:26;;;;;;;7.23;3.80;;;24.00;42.00;;;;;;5094175;28;20456;-56
2023/05/30 08:55:59;;;;;;;8.57;4.53;;;24.10;41.40;;;;;;5093805;28;20883;-56
2023/05/30 08:58:30;;;;;;;13.07;4.90;;;24.30;41.00;;;;;;5094373;28;20945;-56
2023/05/30 09:00:58;;;;;;;8.90;4.90;;;24.50;40.60;;;;;;5094495;28;20464;-56
2023/05/30 09:03:27;;;;;;;9.97;4.97;;;24.80;40.60;;;;;;5094128;28;20443;-56
2023/05/30 09:05:54;;;;;;;10.77;4.30;;;24.90;39.80;;;;;;5093928;28;20486;-56
2023/05/30 09:08:25;;;;;;;14.40;4.80;;;25.10;39.50;;;;;;5093894;28;20456;-56
2023/05/30 09:10:52;;;;;;;13.37;4.50;;;25.20;39.60;;;;;;5093409;28;20464;-56
2023/05/30 09:13:19;;;;;;;9.53;4.07;;;25.30;39.40;;;;;;5093831;28;20432;-56
2023/05/30 09:15:46;;;;;;;11.63;3.60;;;25.40;39.10;;;;;;5093360;28;20840;-56
2023/05/30 09:18:13;;;;;;;13.20;4.43;;;25.60;38.60;;;;;;5093724;28;20475;-56
2023/05/30 09:20:40;;;;;;;8.73;4.70;;;25.80;37.40;;;;;;5093525;28;20480;-57
2023/05/30 09:23:07;;;;;;;12.10;5.27;;;25.90;37.40;;;;;;5093394;28;20443;-57
2023/05/30 09:25:43;;;;;;;7.40;4.10;;;26.10;37.20;;;;;;5093499;28;20537;-57
2023/05/30 09:28:10;;;;;;;7.57;3.83;;;26.30;36.80;;;;;;5093587;28;20466;-57
2023/05/30 09:30:52;;;;;;;5.60;4.07;;;26.40;36.00;;;;;;5093507;28;20480;-57
2023/05/30 09:33:19;;;;;;;7.33;4.10;;;26.60;35.80;;;;;;5093640;28;20527;-57
2023/05/30 09:35:47;;;;;;;9.87;4.27;;;26.80;35.50;;;;;;5093544;28;20479;-57
2023/05/30 09:38:16;;;;;;;8.33;4.50;;;27.00;34.90;;;;;;5093593;28;20551;-57
2023/05/30 09:40:44;;;;;;;9.23;4.67;;;27.00;34.10;;;;;;5093552;28;20530;-57
2023/05/30 09:43:11;;;;;;;13.87;5.50;;;27.10;34.00;;;;;;5093524;28;20819;-57
2023/05/30 09:45:37;;;;;;;11.33;4.90;;;27.30;34.10;;;;;;5093364;28;20467;-57
2023/05/30 09:48:04;;;;;;;9.10;4.67;;;27.50;34.00;;;;;;5093544;28;20521;-57
2023/05/30 09:50:31;;;;;;;10.83;4.70;;;27.70;33.30;;;;;;5093245;28;20443;-57
2023/05/30 09:53:00;;;;;;;11.07;5.73;;;28.00;33.10;;;;;;5094373;28;20458;-57
2023/05/30 09:55:28;;;;;;;8.70;4.90;;;28.20;33.20;;;;;;5097330;28;20472;-57
2023/05/30 09:57:56;;;;;;;12.37;6.33;;;28.50;33.30;;;;;;5097325;28;20454;-57
2023/05/30 10:00:25;;;;;;;11.13;4.87;;;28.80;33.30;;;;;;5097962;28;20450;-57
2023/05/30 10:02:53;;;;;;;10.40;5.53;;;29.20;32.30;;;;;;5097166;28;20459;-57
2023/05/30 10:05:22;;;;;;;8.53;4.67;;;29.50;31.40;;;;;;5097138;28;20558;-57
2023/05/30 10:07:50;;;;;;;16.30;5.37;;;29.80;30.30;;;;;;5097312;28;20534;-57
2023/05/30 10:10:18;;;;;;;11.17;4.83;;;29.90;29.50;;;;;;5096654;28;20879;-57
2023/05/30 10:12:48;;;;;;;8.90;5.00;;;30.10;29.10;;;;;;5097103;28;20424;-55
2023/05/30 10:15:16;;;;;;;9.07;4.13;;;30.30;28.70;;;;;;5096523;28;21007;-55
2023/05/30 10:17:48;;;;;;;8.73;4.73;;;30.60;28.50;;;;;;5096983;28;20442;-55
2023/05/30 10:20:17;;;;;;;11.10;5.57;;;31.00;28.70;;;;;;5096883;28;20423;-55
2023/05/30 10:22:46;;;;;;;10.10;5.70;;;31.40;28.40;;;;;;5096724;28;20514;-56
2023/05/30 10:25:14;;;;;;;8.60;4.73;;;31.70;28.00;;;;;;5096934;28;22160;-55
2023/05/30 10:27:47;;;;;;;11.57;5.17;;;32.10;26.70;;;;;;5096643;28;20957;-56
2023/05/30 10:30:19;;;;;;;8.93;5.10;;;32.40;26.60;;;;;;5096744;28;20532;-54
2023/05/30 10:32:53;;;;;;;17.20;6.17;;;32.80;26.00;;;;;;5095447;28;20447;-55
2023/05/30 10:35:21;;;;;;;9.40;5.40;;;33.10;26.00;;;;;;5096572;28;20474;-55
2023/05/30 10:37:48;;;;;;;5.90;4.17;;;33.40;26.00;;;;;;5096514;28;20517;-55
2023/05/30 10:40:34;;;;;;;8.10;4.93;;;33.70;24.90;;;;;;5096339;28;20967;-56
2023/05/30 10:43:12;;;;;;;7.83;4.20;;;34.20;25.00;;;;;;5097106;28;20510;-55
2023/05/30 10:45:50;;;;;;;6.00;4.23;;;34.70;24.30;;;;;;5096355;28;20865;-56
2023/05/30 10:48:26;;;;;;;9.13;4.93;;;35.10;23.60;;;;;;5096472;28;20434;-56
2023/05/30 10:50:59;;;;;;;6.97;4.40;;;35.60;22.70;;;;;;5096408;28;20427;-56
2023/05/30 10:53:26;;;;;;;8.20;4.00;;;35.90;22.60;;;;;;5096342;28;20423;-56
2023/05/30 10:55:53;;;;;;;6.67;4.30;;;36.20;21.90;;;;;;5096251;28;20294;-56
2023/05/30 10:58:36;;;;;;;5.60;3.60;;;36.40;21.50;;;;;;5096280;28;20204;-55
2023/05/30 11:01:26;;;;;;;9.77;5.00;;;36.70;20.90;;;;;;5096246;28;20307;-56
2023/05/30 11:04:02;;;;;;;8.97;4.20;;;37.10;20.90;;;;;;5095550;28;20186;-56
2023/05/30 11:06:31;;;;;;;6.27;3.83;;;37.30;20.20;;;;;;5095925;28;20255;-56
2023/05/30 11:09:06;;;;;;;7.03;4.00;;;37.60;20.30;;;;;;5095815;28;20205;-57
2023/05/30 11:11:40;;;;;;;7.28;4.82;;;37.90;19.80;;;;;;5096759;28;20208;-59
2023/05/30 11:14:08;;;;;;;5.85;3.92;;;38.30;20.10;;;;;;5098402;28;20224;-56
2023/05/30 11:16:49;;;;;;;11.55;5.43;;;38.70;19.90;;;;;;5097475;28;20279;-56
2023/05/30 11:19:18;;;;;;;7.55;4.25;;;39.20;19.50;;;;;;5095895;28;20629;-56
2023/05/30 11:21:58;;;;;;;6.35;4.22;;;39.30;17.50;;;;;;5095347;28;20581;-56
2023/05/30 11:24:26;;;;;;;8.25;3.95;;;39.50;17.90;;;;;;5095702;28;20217;-56
2023/05/30 11:26:54;;;;;;;6.03;4.13;;;39.80;18.30;;;;;;5095505;28;20224;-56
2023/05/30 11:29:33;;;;;;;7.78;3.90;;;40.10;17.80;;;;;;5095521;28;20224;-56
2023/05/30 11:32:02;;;;;;;9.13;3.90;;;40.40;18.00;;;;;;5095494;28;20177;-56
2023/05/30 11:34:29;;;;;;;6.63;4.00;;;40.70;16.90;;;;;;5095230;28;20200;-56
2023/05/30 11:36:57;;;;;;;8.73;4.20;;;40.80;17.30;;;;;;5095520;28;20256;-56
2023/05/30 11:39:25;;;;;;;6.95;4.03;;;40.90;17.20;;;;;;5095078;28;20686;-56
2023/05/30 11:41:51;;;;;;;6.70;3.80;;;41.00;17.30;;;;;;5095275;28;20270;-56
2023/05/30 11:44:19;;;;;;;6.35;3.28;;;41.00;16.70;;;;;;5095149;28;20675;-56
2023/05/30 11:46:57;;;;;;;6.88;3.45;;;41.10;16.90;;;;;;5094893;28;20655;-56
2023/05/30 11:49:25;;;;;;;6.63;4.40;;;41.30;16.80;;;;;;5095266;28;20189;-56
2023/05/30 11:51:52;;;;;;;9.10;3.75;;;41.50;17.10;;;;;;5095395;28;20201;-56
2023/05/30 11:54:19;;;;;;;10.88;4.18;;;41.80;16.40;;;;;;5095103;28;20727;-56
2023/05/30 11:56:47;;;;;;;9.50;6.03;;;42.00;15.90;;;;;;5095036;28;20229;-56
2023/05/30 11:59:18;;;;;;;8.00;4.07;;;42.20;16.10;;;;;;5094937;28;20693;-56
2023/05/30 12:01:50;;;;;;;5.63;4.13;;;42.30;15.50;;;;;;5094994;28;20297;-56
2023/05/30 12:04:17;;;;;;;8.18;4.25;;;42.50;15.90;;;;;;5095422;28;20268;-56
2023/05/30 12:06:47;;;;;;;10.05;3.92;;;42.70;15.10;;;;;;5095265;28;20221;-56
2023/05/30 12:09:14;;;;;;;5.53;3.80;;;42.80;15.40;;;;;;5094968;28;20206;-57
2023/05/30 12:11:56;;;;;;;8.30;4.80;;;43.00;15.80;;;;;;5094489;28;20205;-57
2023/05/30 12:14:29;;;;;;;5.60;3.35;;;43.20;15.70;;;;;;5094929;28;20232;-57
2023/05/30 12:16:56;;;;;;;7.03;3.80;;;43.40;15.40;;;;;;5094611;28;20311;-57
2023/05/30 12:19:29;;;;;;;8.23;3.78;;;43.60;15.20;;;;;;5094489;28;20213;-57
2023/05/30 12:21:58;;;;;;;11.80;5.30;;;43.80;14.40;;;;;;5094624;28;20237;-57
2023/05/30 12:24:25;;;;;;;5.35;3.70;;;43.90;14.70;;;;;;5094602;28;20197;-57
2023/05/30 12:26:56;;;;;;;7.43;4.00;;;43.90;14.50;;;;;;5094518;28;20232;-57
2023/05/30 12:29:24;;;;;;;7.65;4.07;;;44.10;14.60;;;;;;5094690;28;20254;-57
2023/05/30 12:31:51;;;;;;;9.02;4.00;;;44.20;14.70;;;;;;5094588;28;20199;-57
2023/05/30 12:34:18;;;;;;;6.45;3.33;;;44.30;14.40;;;;;;5094504;28;20602;-57
2023/05/30 12:36:47;;;;;;;4.15;3.25;;;44.30;13.90;;;;;;5094198;28;20229;-57
2023/05/30 12:39:15;;;;;;;5.35;3.15;;;44.50;14.50;;;;;;5094161;28;20250;-57
2023/05/30 12:41:42;;;;;;;6.20;3.97;;;44.70;14.10;;;;;;5094101;28;20236;-58
2023/05/30 12:44:09;;;;;;;6.47;3.50;;;45.00;14.70;;;;;;5094177;28;20201;-56
2023/05/30 12:46:37;;;;;;;5.10;3.35;;;45.20;14.40;;;;;;5094002;28;20221;-56
2023/05/30 12:49:04;;;;;;;6.07;3.50;;;45.30;14.00;;;;;;5094117;28;20284;-56